sensor_id;sensor_type;location;lat;lon;timestamp;P1;durP1;ratioP1;P2;durP2;ratioP2
78916;SDS011;68315;48.608;11.436;2024-03-02T00:00:48;18.60;;;12.43;;
78916;SDS011;68315;48.608;11.436;2024-03-02T00:03:14;17.55;;;13.48;;
78916;SDS011;68315;48.608;11.436;2024-03-02T00:05:39;19.48;;;12.73;;
78916;SDS011;68315;48.608;11.436;2024-03-02T00:08:05;20.70;;;13.80;;
78916;SDS011;68315;48.608;11.436;2024-03-02T00:10:36;20.95;;;14.57;;
78916;SDS011;68315;48.608;11.436;2024-03-02T00:13:05;19.60;;;13.68;;
78916;SDS011;68315;48.608;11.436;2024-03-02T00:17:58;20.80;;;13.47;;
78916;SDS011;68315;48.608;11.436;2024-03-02T00:20:24;19.08;;;12.63;;
78916;SDS011;68315;48.608;11.436;2024-03-02T00:22:57;19.08;;;12.98;;
78916;SDS011;68315;48.608;11.436;2024-03-02T00:25:34;21.02;;;14.23;;
78916;SDS011;68315;48.608;11.436;2024-03-02T00:28:02;22.02;;;14.20;;
78916;SDS011;68315;48.608;11.436;2024-03-02T00:30:38;20.95;;;14.48;;
78916;SDS011;68315;48.608;11.436;2024-03-02T00:33:10;22.15;;;15.70;;
78916;SDS011;68315;48.608;11.436;2024-03-02T00:35:36;21.60;;;15.57;;
78916;SDS011;68315;48.608;11.436;2024-03-02T00:38:04;24.95;;;16.58;;
78916;SDS011;68315;48.608;11.436;2024-03-02T00:40:31;23.45;;;16.17;;
78916;SDS011;68315;48.608;11.436;2024-03-02T00:42:56;24.67;;;16.73;;
78916;SDS011;68315;48.608;11.436;2024-03-02T00:45:22;25.08;;;18.00;;
78916;SDS011;68315;48.608;11.436;2024-03-02T00:47:47;28.13;;;19.50;;
78916;SDS011;68315;48.608;11.436;2024-03-02T00:50:12;26.85;;;18.60;;
78916;SDS011;68315;48.608;11.436;2024-03-02T00:52:38;26.45;;;18.55;;
78916;SDS011;68315;48.608;11.436;2024-03-02T00:55:04;26.83;;;18.52;;
78916;SDS011;68315;48.608;11.436;2024-03-02T00:57:30;27.60;;;19.10;;
78916;SDS011;68315;48.608;11.436;2024-03-02T00:59:59;24.13;;;17.05;;
78916;SDS011;68315;48.608;11.436;2024-03-02T01:02:25;27.50;;;17.58;;
78916;SDS011;68315;48.608;11.436;2024-03-02T01:04:50;27.00;;;17.85;;
78916;SDS011;68315;48.608;11.436;2024-03-02T01:07:15;24.55;;;17.42;;
78916;SDS011;68315;48.608;11.436;2024-03-02T01:09:40;28.38;;;18.90;;
78916;SDS011;68315;48.608;11.436;2024-03-02T01:12:06;23.80;;;16.10;;
78916;SDS011;68315;48.608;11.436;2024-03-02T01:14:31;28.33;;;19.15;;
78916;SDS011;68315;48.608;11.436;2024-03-02T01:16:57;28.40;;;19.60;;
78916;SDS011;68315;48.608;11.436;2024-03-02T01:19:23;27.92;;;20.10;;
78916;SDS011;68315;48.608;11.436;2024-03-02T01:21:48;29.67;;;20.45;;
78916;SDS011;68315;48.608;11.436;2024-03-02T01:24:15;30.33;;;20.88;;
78916;SDS011;68315;48.608;11.436;2024-03-02T01:26:41;29.17;;;19.70;;
78916;SDS011;68315;48.608;11.436;2024-03-02T01:29:07;26.75;;;18.60;;
78916;SDS011;68315;48.608;11.436;2024-03-02T01:31:32;24.77;;;17.55;;
78916;SDS011;68315;48.608;11.436;2024-03-02T01:33:57;22.55;;;16.05;;
78916;SDS011;68315;48.608;11.436;2024-03-02T01:36:22;26.17;;;18.30;;
78916;SDS011;68315;48.608;11.436;2024-03-02T01:38:48;26.45;;;18.95;;
78916;SDS011;68315;48.608;11.436;2024-03-02T01:41:14;25.17;;;18.77;;
78916;SDS011;68315;48.608;11.436;2024-03-02T01:43:39;29.23;;;19.10;;
78916;SDS011;68315;48.608;11.436;2024-03-02T01:46:05;30.92;;;20.35;;
78916;SDS011;68315;48.608;11.436;2024-03-02T01:48:30;33.58;;;19.77;;
78916;SDS011;68315;48.608;11.436;2024-03-02T01:50:55;26.92;;;18.20;;
78916;SDS011;68315;48.608;11.436;2024-03-02T01:53:20;27.40;;;18.63;;
78916;SDS011;68315;48.608;11.436;2024-03-02T01:55:46;25.33;;;17.77;;
78916;SDS011;68315;48.608;11.436;2024-03-02T01:58:11;30.33;;;20.38;;
78916;SDS011;68315;48.608;11.436;2024-03-02T02:00:36;31.88;;;21.05;;
78916;SDS011;68315;48.608;11.436;2024-03-02T02:03:02;26.52;;;19.02;;
78916;SDS011;68315;48.608;11.436;2024-03-02T02:05:27;34.50;;;22.88;;
78916;SDS011;68315;48.608;11.436;2024-03-02T02:07:53;37.53;;;23.45;;
78916;SDS011;68315;48.608;11.436;2024-03-02T02:10:18;33.92;;;22.20;;
78916;SDS011;68315;48.608;11.436;2024-03-02T02:12:43;31.05;;;21.13;;
78916;SDS011;68315;48.608;11.436;2024-03-02T02:15:21;33.17;;;21.08;;
78916;SDS011;68315;48.608;11.436;2024-03-02T02:17:47;30.55;;;19.13;;
78916;SDS011;68315;48.608;11.436;2024-03-02T02:20:12;31.35;;;19.33;;
78916;SDS011;68315;48.608;11.436;2024-03-02T02:22:37;32.38;;;19.60;;
78916;SDS011;68315;48.608;11.436;2024-03-02T02:25:02;27.80;;;19.30;;
78916;SDS011;68315;48.608;11.436;2024-03-02T02:27:28;28.38;;;19.13;;
78916;SDS011;68315;48.608;11.436;2024-03-02T02:29:53;29.27;;;19.30;;
78916;SDS011;68315;48.608;11.436;2024-03-02T02:32:18;30.42;;;21.05;;
78916;SDS011;68315;48.608;11.436;2024-03-02T02:34:43;29.70;;;19.08;;
78916;SDS011;68315;48.608;11.436;2024-03-02T02:37:08;27.17;;;18.90;;
78916;SDS011;68315;48.608;11.436;2024-03-02T02:39:34;28.80;;;20.02;;
78916;SDS011;68315;48.608;11.436;2024-03-02T02:41:59;32.15;;;22.20;;
78916;SDS011;68315;48.608;11.436;2024-03-02T02:44:26;31.50;;;20.58;;
78916;SDS011;68315;48.608;11.436;2024-03-02T02:46:51;34.40;;;21.27;;
78916;SDS011;68315;48.608;11.436;2024-03-02T02:49:16;28.65;;;19.25;;
78916;SDS011;68315;48.608;11.436;2024-03-02T02:51:42;30.65;;;19.63;;
78916;SDS011;68315;48.608;11.436;2024-03-02T02:54:07;32.60;;;20.98;;
78916;SDS011;68315;48.608;11.436;2024-03-02T02:56:32;32.40;;;21.75;;
78916;SDS011;68315;48.608;11.436;2024-03-02T02:58:57;29.38;;;20.13;;
78916;SDS011;68315;48.608;11.436;2024-03-02T03:01:23;26.73;;;18.38;;
78916;SDS011;68315;48.608;11.436;2024-03-02T03:03:48;28.17;;;19.77;;
78916;SDS011;68315;48.608;11.436;2024-03-02T03:06:14;35.42;;;22.23;;
78916;SDS011;68315;48.608;11.436;2024-03-02T03:08:39;29.85;;;19.58;;
78916;SDS011;68315;48.608;11.436;2024-03-02T03:11:04;26.33;;;18.20;;
78916;SDS011;68315;48.608;11.436;2024-03-02T03:13:30;28.58;;;18.50;;
78916;SDS011;68315;48.608;11.436;2024-03-02T03:15:56;29.50;;;20.15;;
78916;SDS011;68315;48.608;11.436;2024-03-02T03:18:21;31.13;;;19.83;;
78916;SDS011;68315;48.608;11.436;2024-03-02T03:20:46;31.27;;;19.95;;
78916;SDS011;68315;48.608;11.436;2024-03-02T03:23:12;29.80;;;19.08;;
78916;SDS011;68315;48.608;11.436;2024-03-02T03:25:40;29.30;;;19.80;;
78916;SDS011;68315;48.608;11.436;2024-03-02T03:28:06;31.05;;;19.40;;
78916;SDS011;68315;48.608;11.436;2024-03-02T03:30:31;28.77;;;19.75;;
78916;SDS011;68315;48.608;11.436;2024-03-02T03:32:56;29.33;;;19.13;;
78916;SDS011;68315;48.608;11.436;2024-03-02T03:35:22;29.50;;;19.65;;
78916;SDS011;68315;48.608;11.436;2024-03-02T03:37:47;27.73;;;18.80;;
78916;SDS011;68315;48.608;11.436;2024-03-02T03:40:13;28.92;;;20.10;;
78916;SDS011;68315;48.608;11.436;2024-03-02T03:42:39;25.63;;;18.20;;
78916;SDS011;68315;48.608;11.436;2024-03-02T03:45:04;28.63;;;18.23;;
78916;SDS011;68315;48.608;11.436;2024-03-02T03:47:31;26.95;;;17.88;;
78916;SDS011;68315;48.608;11.436;2024-03-02T03:49:56;28.08;;;19.15;;
78916;SDS011;68315;48.608;11.436;2024-03-02T03:52:22;29.88;;;20.00;;
78916;SDS011;68315;48.608;11.436;2024-03-02T03:54:48;27.85;;;18.15;;
78916;SDS011;68315;48.608;11.436;2024-03-02T03:57:13;31.58;;;19.83;;
78916;SDS011;68315;48.608;11.436;2024-03-02T03:59:38;25.65;;;18.10;;
78916;SDS011;68315;48.608;11.436;2024-03-02T04:02:04;27.92;;;19.27;;
78916;SDS011;68315;48.608;11.436;2024-03-02T04:04:29;31.70;;;20.85;;
78916;SDS011;68315;48.608;11.436;2024-03-02T04:06:54;35.88;;;22.17;;
78916;SDS011;68315;48.608;11.436;2024-03-02T04:09:20;28.25;;;20.17;;
78916;SDS011;68315;48.608;11.436;2024-03-02T04:11:45;29.50;;;19.10;;
78916;SDS011;68315;48.608;11.436;2024-03-02T04:14:10;27.40;;;17.92;;
78916;SDS011;68315;48.608;11.436;2024-03-02T04:16:37;29.52;;;19.67;;
78916;SDS011;68315;48.608;11.436;2024-03-02T04:19:02;25.80;;;17.98;;
78916;SDS011;68315;48.608;11.436;2024-03-02T04:21:28;28.08;;;19.15;;
78916;SDS011;68315;48.608;11.436;2024-03-02T04:23:54;27.55;;;18.00;;
78916;SDS011;68315;48.608;11.436;2024-03-02T04:26:23;34.20;;;21.15;;
78916;SDS011;68315;48.608;11.436;2024-03-02T04:28:48;30.83;;;20.30;;
78916;SDS011;68315;48.608;11.436;2024-03-02T04:31:14;31.38;;;20.02;;
78916;SDS011;68315;48.608;11.436;2024-03-02T04:33:40;30.00;;;20.52;;
78916;SDS011;68315;48.608;11.436;2024-03-02T04:36:05;30.08;;;19.77;;
78916;SDS011;68315;48.608;11.436;2024-03-02T04:38:33;29.63;;;18.90;;
78916;SDS011;68315;48.608;11.436;2024-03-02T04:40:58;25.75;;;18.00;;
78916;SDS011;68315;48.608;11.436;2024-03-02T04:43:24;28.05;;;18.45;;
78916;SDS011;68315;48.608;11.436;2024-03-02T04:45:49;25.63;;;17.58;;
78916;SDS011;68315;48.608;11.436;2024-03-02T04:48:14;26.55;;;17.25;;
78916;SDS011;68315;48.608;11.436;2024-03-02T04:50:39;25.52;;;17.48;;
78916;SDS011;68315;48.608;11.436;2024-03-02T04:53:05;24.52;;;17.00;;
78916;SDS011;68315;48.608;11.436;2024-03-02T04:55:30;24.20;;;16.38;;
78916;SDS011;68315;48.608;11.436;2024-03-02T04:57:59;23.58;;;16.27;;
78916;SDS011;68315;48.608;11.436;2024-03-02T05:00:24;23.58;;;16.25;;
78916;SDS011;68315;48.608;11.436;2024-03-02T05:02:49;20.95;;;15.48;;
78916;SDS011;68315;48.608;11.436;2024-03-02T05:05:16;27.42;;;17.48;;
78916;SDS011;68315;48.608;11.436;2024-03-02T05:07:41;25.33;;;17.20;;
78916;SDS011;68315;48.608;11.436;2024-03-02T05:10:08;25.15;;;17.42;;
78916;SDS011;68315;48.608;11.436;2024-03-02T05:12:34;27.15;;;17.88;;
78916;SDS011;68315;48.608;11.436;2024-03-02T05:15:11;28.73;;;18.50;;
78916;SDS011;68315;48.608;11.436;2024-03-02T05:17:39;27.52;;;19.08;;
78916;SDS011;68315;48.608;11.436;2024-03-02T05:20:08;26.92;;;18.08;;
78916;SDS011;68315;48.608;11.436;2024-03-02T05:22:34;27.77;;;18.60;;
78916;SDS011;68315;48.608;11.436;2024-03-02T05:25:00;30.38;;;19.10;;
78916;SDS011;68315;48.608;11.436;2024-03-02T05:27:26;28.85;;;18.60;;
78916;SDS011;68315;48.608;11.436;2024-03-02T05:29:51;31.25;;;19.95;;
78916;SDS011;68315;48.608;11.436;2024-03-02T05:32:17;29.38;;;19.08;;
78916;SDS011;68315;48.608;11.436;2024-03-02T05:34:42;26.73;;;17.90;;
78916;SDS011;68315;48.608;11.436;2024-03-02T05:37:07;28.67;;;19.25;;
78916;SDS011;68315;48.608;11.436;2024-03-02T05:39:32;29.33;;;19.55;;
78916;SDS011;68315;48.608;11.436;2024-03-02T05:41:57;32.00;;;21.10;;
78916;SDS011;68315;48.608;11.436;2024-03-02T05:44:23;30.27;;;19.92;;
78916;SDS011;68315;48.608;11.436;2024-03-02T05:46:48;28.25;;;19.20;;
78916;SDS011;68315;48.608;11.436;2024-03-02T05:49:13;30.60;;;19.33;;
78916;SDS011;68315;48.608;11.436;2024-03-02T05:51:38;29.27;;;18.92;;
78916;SDS011;68315;48.608;11.436;2024-03-02T05:54:04;28.73;;;18.60;;
78916;SDS011;68315;48.608;11.436;2024-03-02T05:56:29;31.90;;;19.45;;
78916;SDS011;68315;48.608;11.436;2024-03-02T05:58:54;32.25;;;20.00;;
78916;SDS011;68315;48.608;11.436;2024-03-02T06:01:37;30.48;;;18.80;;
78916;SDS011;68315;48.608;11.436;2024-03-02T06:04:02;27.80;;;18.80;;
78916;SDS011;68315;48.608;11.436;2024-03-02T06:06:28;27.52;;;18.13;;
78916;SDS011;68315;48.608;11.436;2024-03-02T06:08:53;27.17;;;17.73;;
78916;SDS011;68315;48.608;11.436;2024-03-02T06:11:19;26.38;;;17.35;;
78916;SDS011;68315;48.608;11.436;2024-03-02T06:13:44;24.65;;;16.42;;
78916;SDS011;68315;48.608;11.436;2024-03-02T06:16:10;23.83;;;16.15;;
78916;SDS011;68315;48.608;11.436;2024-03-02T06:18:35;20.35;;;14.82;;
78916;SDS011;68315;48.608;11.436;2024-03-02T06:21:00;25.73;;;17.67;;
78916;SDS011;68315;48.608;11.436;2024-03-02T06:23:28;29.92;;;19.52;;
78916;SDS011;68315;48.608;11.436;2024-03-02T06:25:54;32.35;;;20.15;;
78916;SDS011;68315;48.608;11.436;2024-03-02T06:28:19;33.65;;;19.67;;
78916;SDS011;68315;48.608;11.436;2024-03-02T06:30:44;32.03;;;19.45;;
78916;SDS011;68315;48.608;11.436;2024-03-02T06:33:13;33.55;;;20.85;;
78916;SDS011;68315;48.608;11.436;2024-03-02T06:35:38;39.80;;;22.67;;
78916;SDS011;68315;48.608;11.436;2024-03-02T06:38:04;38.42;;;22.15;;
78916;SDS011;68315;48.608;11.436;2024-03-02T06:40:29;37.15;;;23.10;;
78916;SDS011;68315;48.608;11.436;2024-03-02T06:42:54;34.05;;;21.98;;
78916;SDS011;68315;48.608;11.436;2024-03-02T06:45:20;35.47;;;21.60;;
78916;SDS011;68315;48.608;11.436;2024-03-02T06:47:45;33.53;;;20.73;;
78916;SDS011;68315;48.608;11.436;2024-03-02T06:50:11;35.35;;;21.98;;
78916;SDS011;68315;48.608;11.436;2024-03-02T06:52:36;30.85;;;20.85;;
78916;SDS011;68315;48.608;11.436;2024-03-02T06:55:02;33.67;;;22.30;;
78916;SDS011;68315;48.608;11.436;2024-03-02T06:57:29;35.65;;;21.70;;
78916;SDS011;68315;48.608;11.436;2024-03-02T06:59:54;36.78;;;22.90;;
78916;SDS011;68315;48.608;11.436;2024-03-02T07:02:23;38.53;;;23.83;;
78916;SDS011;68315;48.608;11.436;2024-03-02T07:04:49;40.45;;;23.45;;
78916;SDS011;68315;48.608;11.436;2024-03-02T07:07:16;41.85;;;24.67;;
78916;SDS011;68315;48.608;11.436;2024-03-02T07:09:41;39.28;;;24.65;;
78916;SDS011;68315;48.608;11.436;2024-03-02T07:12:07;38.72;;;24.63;;
78916;SDS011;68315;48.608;11.436;2024-03-02T07:14:32;37.65;;;24.08;;
78916;SDS011;68315;48.608;11.436;2024-03-02T07:17:16;41.40;;;25.98;;
78916;SDS011;68315;48.608;11.436;2024-03-02T07:19:41;40.35;;;25.15;;
78916;SDS011;68315;48.608;11.436;2024-03-02T07:22:06;39.10;;;24.52;;
78916;SDS011;68315;48.608;11.436;2024-03-02T07:24:33;34.72;;;23.58;;
78916;SDS011;68315;48.608;11.436;2024-03-02T07:27:04;34.67;;;23.40;;
78916;SDS011;68315;48.608;11.436;2024-03-02T07:29:29;32.92;;;22.85;;
78916;SDS011;68315;48.608;11.436;2024-03-02T07:31:55;32.80;;;22.85;;
78916;SDS011;68315;48.608;11.436;2024-03-02T07:34:20;35.90;;;24.73;;
78916;SDS011;68315;48.608;11.436;2024-03-02T07:36:45;37.67;;;25.83;;
78916;SDS011;68315;48.608;11.436;2024-03-02T07:39:10;38.00;;;25.95;;
78916;SDS011;68315;48.608;11.436;2024-03-02T07:41:35;40.50;;;26.80;;
78916;SDS011;68315;48.608;11.436;2024-03-02T07:44:01;41.60;;;26.33;;
78916;SDS011;68315;48.608;11.436;2024-03-02T07:46:26;35.35;;;24.00;;
78916;SDS011;68315;48.608;11.436;2024-03-02T07:48:52;36.53;;;24.75;;
78916;SDS011;68315;48.608;11.436;2024-03-02T07:51:17;37.03;;;25.35;;
78916;SDS011;68315;48.608;11.436;2024-03-02T07:53:43;37.03;;;25.17;;
78916;SDS011;68315;48.608;11.436;2024-03-02T07:56:08;35.97;;;24.42;;
78916;SDS011;68315;48.608;11.436;2024-03-02T07:58:33;33.67;;;23.95;;
78916;SDS011;68315;48.608;11.436;2024-03-02T08:01:00;33.92;;;23.52;;
78916;SDS011;68315;48.608;11.436;2024-03-02T08:03:26;30.27;;;22.60;;
78916;SDS011;68315;48.608;11.436;2024-03-02T08:05:51;30.42;;;22.48;;
78916;SDS011;68315;48.608;11.436;2024-03-02T08:08:16;29.98;;;22.80;;
78916;SDS011;68315;48.608;11.436;2024-03-02T08:10:42;28.95;;;21.77;;
78916;SDS011;68315;48.608;11.436;2024-03-02T08:13:07;27.85;;;20.20;;
78916;SDS011;68315;48.608;11.436;2024-03-02T08:15:32;26.65;;;20.73;;
78916;SDS011;68315;48.608;11.436;2024-03-02T08:17:58;24.98;;;19.08;;
78916;SDS011;68315;48.608;11.436;2024-03-02T08:20:23;26.20;;;19.63;;
78916;SDS011;68315;48.608;11.436;2024-03-02T08:22:48;23.95;;;18.30;;
78916;SDS011;68315;48.608;11.436;2024-03-02T08:25:14;25.02;;;18.83;;
78916;SDS011;68315;48.608;11.436;2024-03-02T08:27:40;22.75;;;18.30;;
78916;SDS011;68315;48.608;11.436;2024-03-02T08:30:06;22.70;;;17.75;;
78916;SDS011;68315;48.608;11.436;2024-03-02T08:32:33;24.77;;;18.75;;
78916;SDS011;68315;48.608;11.436;2024-03-02T08:34:58;24.73;;;18.85;;
78916;SDS011;68315;48.608;11.436;2024-03-02T08:37:23;26.05;;;18.65;;
78916;SDS011;68315;48.608;11.436;2024-03-02T08:39:48;26.02;;;18.02;;
78916;SDS011;68315;48.608;11.436;2024-03-02T08:42:14;23.55;;;17.33;;
78916;SDS011;68315;48.608;11.436;2024-03-02T08:44:40;25.67;;;18.23;;
78916;SDS011;68315;48.608;11.436;2024-03-02T08:47:05;28.13;;;19.75;;
78916;SDS011;68315;48.608;11.436;2024-03-02T08:49:30;27.05;;;18.88;;
78916;SDS011;68315;48.608;11.436;2024-03-02T08:51:55;30.33;;;19.08;;
78916;SDS011;68315;48.608;11.436;2024-03-02T08:54:21;29.60;;;18.98;;
78916;SDS011;68315;48.608;11.436;2024-03-02T08:56:47;26.60;;;18.65;;
78916;SDS011;68315;48.608;11.436;2024-03-02T08:59:13;29.25;;;20.05;;
78916;SDS011;68315;48.608;11.436;2024-03-02T09:01:38;30.80;;;19.65;;
78916;SDS011;68315;48.608;11.436;2024-03-02T09:04:06;29.65;;;20.38;;
78916;SDS011;68315;48.608;11.436;2024-03-02T09:06:33;26.27;;;19.58;;
78916;SDS011;68315;48.608;11.436;2024-03-02T09:08:59;28.95;;;19.88;;
78916;SDS011;68315;48.608;11.436;2024-03-02T09:11:24;29.08;;;19.95;;
78916;SDS011;68315;48.608;11.436;2024-03-02T09:13:50;27.52;;;18.73;;
78916;SDS011;68315;48.608;11.436;2024-03-02T09:16:15;28.42;;;20.48;;
78916;SDS011;68315;48.608;11.436;2024-03-02T09:18:40;27.52;;;19.90;;
78916;SDS011;68315;48.608;11.436;2024-03-02T09:21:05;29.15;;;20.08;;
78916;SDS011;68315;48.608;11.436;2024-03-02T09:23:31;29.42;;;20.77;;
78916;SDS011;68315;48.608;11.436;2024-03-02T09:25:57;30.65;;;20.08;;
78916;SDS011;68315;48.608;11.436;2024-03-02T09:28:24;29.23;;;19.38;;
78916;SDS011;68315;48.608;11.436;2024-03-02T09:30:49;30.60;;;20.02;;
78916;SDS011;68315;48.608;11.436;2024-03-02T09:33:14;30.88;;;19.13;;
78916;SDS011;68315;48.608;11.436;2024-03-02T09:35:40;30.48;;;19.98;;
78916;SDS011;68315;48.608;11.436;2024-03-02T09:38:05;26.98;;;18.63;;
78916;SDS011;68315;48.608;11.436;2024-03-02T09:40:30;30.10;;;19.13;;
78916;SDS011;68315;48.608;11.436;2024-03-02T09:42:56;31.95;;;19.63;;
78916;SDS011;68315;48.608;11.436;2024-03-02T09:45:22;28.58;;;19.75;;
78916;SDS011;68315;48.608;11.436;2024-03-02T09:47:48;29.05;;;20.25;;
78916;SDS011;68315;48.608;11.436;2024-03-02T09:50:14;32.17;;;20.48;;
78916;SDS011;68315;48.608;11.436;2024-03-02T09:52:40;30.42;;;21.13;;
78916;SDS011;68315;48.608;11.436;2024-03-02T09:55:07;33.42;;;22.13;;
78916;SDS011;68315;48.608;11.436;2024-03-02T09:57:33;34.70;;;23.00;;
78916;SDS011;68315;48.608;11.436;2024-03-02T09:59:58;35.45;;;21.85;;
78916;SDS011;68315;48.608;11.436;2024-03-02T10:02:23;32.03;;;21.10;;
78916;SDS011;68315;48.608;11.436;2024-03-02T10:04:49;32.50;;;21.38;;
78916;SDS011;68315;48.608;11.436;2024-03-02T10:07:15;30.77;;;20.70;;
78916;SDS011;68315;48.608;11.436;2024-03-02T10:09:42;29.23;;;19.85;;
78916;SDS011;68315;48.608;11.436;2024-03-02T10:12:09;31.98;;;20.50;;
78916;SDS011;68315;48.608;11.436;2024-03-02T10:14:36;32.60;;;20.02;;
78916;SDS011;68315;48.608;11.436;2024-03-02T10:17:02;34.75;;;22.63;;
78916;SDS011;68315;48.608;11.436;2024-03-02T10:19:29;31.92;;;21.77;;
78916;SDS011;68315;48.608;11.436;2024-03-02T10:21:58;35.53;;;22.50;;
78916;SDS011;68315;48.608;11.436;2024-03-02T10:24:24;37.22;;;22.83;;
78916;SDS011;68315;48.608;11.436;2024-03-02T10:26:50;36.58;;;22.48;;
78916;SDS011;68315;48.608;11.436;2024-03-02T10:29:15;32.25;;;21.67;;
78916;SDS011;68315;48.608;11.436;2024-03-02T10:31:41;30.10;;;20.50;;
78916;SDS011;68315;48.608;11.436;2024-03-02T10:34:09;32.13;;;20.58;;
78916;SDS011;68315;48.608;11.436;2024-03-02T10:36:35;33.22;;;21.85;;
78916;SDS011;68315;48.608;11.436;2024-03-02T10:39:01;36.17;;;21.15;;
78916;SDS011;68315;48.608;11.436;2024-03-02T10:41:34;27.45;;;19.55;;
78916;SDS011;68315;48.608;11.436;2024-03-02T10:44:03;31.63;;;19.95;;
78916;SDS011;68315;48.608;11.436;2024-03-02T10:46:30;34.75;;;20.83;;
78916;SDS011;68315;48.608;11.436;2024-03-02T10:48:58;32.75;;;20.98;;
78916;SDS011;68315;48.608;11.436;2024-03-02T10:51:24;30.15;;;19.85;;
78916;SDS011;68315;48.608;11.436;2024-03-02T10:53:51;34.83;;;21.63;;
78916;SDS011;68315;48.608;11.436;2024-03-02T10:56:19;29.70;;;20.00;;
78916;SDS011;68315;48.608;11.436;2024-03-02T10:58:50;31.50;;;20.02;;
78916;SDS011;68315;48.608;11.436;2024-03-02T11:01:23;34.05;;;21.92;;
78916;SDS011;68315;48.608;11.436;2024-03-02T11:03:50;34.30;;;23.15;;
78916;SDS011;68315;48.608;11.436;2024-03-02T11:06:15;32.58;;;21.50;;
78916;SDS011;68315;48.608;11.436;2024-03-02T11:08:41;32.00;;;20.17;;
78916;SDS011;68315;48.608;11.436;2024-03-02T11:11:14;30.60;;;19.85;;
78916;SDS011;68315;48.608;11.436;2024-03-02T11:13:42;28.80;;;19.17;;
78916;SDS011;68315;48.608;11.436;2024-03-02T11:16:24;35.60;;;23.00;;
78916;SDS011;68315;48.608;11.436;2024-03-02T11:18:57;34.03;;;22.90;;
78916;SDS011;68315;48.608;11.436;2024-03-02T11:21:23;38.00;;;25.27;;
78916;SDS011;68315;48.608;11.436;2024-03-02T11:23:49;34.65;;;22.85;;
78916;SDS011;68315;48.608;11.436;2024-03-02T11:26:18;34.27;;;21.37;;
78916;SDS011;68315;48.608;11.436;2024-03-02T11:28:44;31.17;;;20.40;;
78916;SDS011;68315;48.608;11.436;2024-03-02T11:31:10;33.00;;;21.15;;
78916;SDS011;68315;48.608;11.436;2024-03-02T11:33:35;30.33;;;20.93;;
78916;SDS011;68315;48.608;11.436;2024-03-02T11:36:00;30.55;;;20.45;;
78916;SDS011;68315;48.608;11.436;2024-03-02T11:38:32;28.67;;;19.50;;
78916;SDS011;68315;48.608;11.436;2024-03-02T11:41:07;30.10;;;21.05;;
78916;SDS011;68315;48.608;11.436;2024-03-02T11:43:39;30.73;;;20.55;;
78916;SDS011;68315;48.608;11.436;2024-03-02T11:46:06;32.65;;;20.98;;
78916;SDS011;68315;48.608;11.436;2024-03-02T11:48:32;31.83;;;22.95;;
78916;SDS011;68315;48.608;11.436;2024-03-02T11:51:00;31.15;;;20.77;;
78916;SDS011;68315;48.608;11.436;2024-03-02T11:53:27;32.67;;;23.02;;
78916;SDS011;68315;48.608;11.436;2024-03-02T11:55:55;30.02;;;21.17;;
78916;SDS011;68315;48.608;11.436;2024-03-02T11:58:20;32.92;;;23.17;;
78916;SDS011;68315;48.608;11.436;2024-03-02T12:00:52;31.83;;;22.15;;
78916;SDS011;68315;48.608;11.436;2024-03-02T12:03:18;32.28;;;23.15;;
78916;SDS011;68315;48.608;11.436;2024-03-02T12:05:47;31.42;;;22.33;;
78916;SDS011;68315;48.608;11.436;2024-03-02T12:08:14;31.40;;;21.58;;
78916;SDS011;68315;48.608;11.436;2024-03-02T12:10:39;32.20;;;22.45;;
78916;SDS011;68315;48.608;11.436;2024-03-02T12:13:05;31.47;;;21.30;;
78916;SDS011;68315;48.608;11.436;2024-03-02T12:15:33;32.97;;;22.58;;
78916;SDS011;68315;48.608;11.436;2024-03-02T12:18:00;30.90;;;20.77;;
78916;SDS011;68315;48.608;11.436;2024-03-02T12:20:27;25.80;;;19.10;;
78916;SDS011;68315;48.608;11.436;2024-03-02T12:22:54;27.05;;;19.02;;
78916;SDS011;68315;48.608;11.436;2024-03-02T12:25:21;24.48;;;18.35;;
78916;SDS011;68315;48.608;11.436;2024-03-02T12:27:47;28.48;;;19.95;;
78916;SDS011;68315;48.608;11.436;2024-03-02T12:30:16;26.10;;;18.33;;
78916;SDS011;68315;48.608;11.436;2024-03-02T12:32:41;29.83;;;20.58;;
78916;SDS011;68315;48.608;11.436;2024-03-02T12:35:07;29.63;;;21.23;;
78916;SDS011;68315;48.608;11.436;2024-03-02T12:37:32;24.58;;;18.17;;
78916;SDS011;68315;48.608;11.436;2024-03-02T12:39:58;28.70;;;19.00;;
78916;SDS011;68315;48.608;11.436;2024-03-02T12:42:24;25.10;;;18.25;;
78916;SDS011;68315;48.608;11.436;2024-03-02T12:44:51;28.45;;;20.27;;
78916;SDS011;68315;48.608;11.436;2024-03-02T12:47:19;23.83;;;17.98;;
78916;SDS011;68315;48.608;11.436;2024-03-02T12:49:44;25.90;;;18.35;;
78916;SDS011;68315;48.608;11.436;2024-03-02T12:52:11;21.77;;;16.52;;
78916;SDS011;68315;48.608;11.436;2024-03-02T12:54:38;23.60;;;17.25;;
78916;SDS011;68315;48.608;11.436;2024-03-02T12:57:03;21.48;;;17.30;;
78916;SDS011;68315;48.608;11.436;2024-03-02T12:59:28;23.55;;;17.17;;
78916;SDS011;68315;48.608;11.436;2024-03-02T13:01:54;22.60;;;16.67;;
78916;SDS011;68315;48.608;11.436;2024-03-02T13:04:25;18.67;;;13.88;;
78916;SDS011;68315;48.608;11.436;2024-03-02T13:06:51;20.17;;;13.88;;
78916;SDS011;68315;48.608;11.436;2024-03-02T13:09:18;20.25;;;14.25;;
78916;SDS011;68315;48.608;11.436;2024-03-02T13:11:43;20.55;;;14.82;;
78916;SDS011;68315;48.608;11.436;2024-03-02T13:14:10;23.50;;;16.80;;
78916;SDS011;68315;48.608;11.436;2024-03-02T13:16:39;22.17;;;16.23;;
78916;SDS011;68315;48.608;11.436;2024-03-02T13:19:08;22.48;;;16.23;;
78916;SDS011;68315;48.608;11.436;2024-03-02T13:21:34;23.50;;;16.48;;
78916;SDS011;68315;48.608;11.436;2024-03-02T13:24:00;21.23;;;15.45;;
78916;SDS011;68315;48.608;11.436;2024-03-02T13:26:26;19.85;;;14.73;;
78916;SDS011;68315;48.608;11.436;2024-03-02T13:28:51;20.33;;;14.90;;
78916;SDS011;68315;48.608;11.436;2024-03-02T13:31:16;21.40;;;15.77;;
78916;SDS011;68315;48.608;11.436;2024-03-02T13:33:42;20.33;;;14.50;;
78916;SDS011;68315;48.608;11.436;2024-03-02T13:36:07;19.15;;;15.30;;
78916;SDS011;68315;48.608;11.436;2024-03-02T13:38:33;23.60;;;15.60;;
78916;SDS011;68315;48.608;11.436;2024-03-02T13:40:58;20.60;;;14.38;;
78916;SDS011;68315;48.608;11.436;2024-03-02T13:43:25;22.38;;;14.95;;
78916;SDS011;68315;48.608;11.436;2024-03-02T13:45:51;21.98;;;16.17;;
78916;SDS011;68315;48.608;11.436;2024-03-02T13:48:17;19.63;;;14.45;;
78916;SDS011;68315;48.608;11.436;2024-03-02T13:50:42;19.98;;;14.05;;
78916;SDS011;68315;48.608;11.436;2024-03-02T13:53:07;18.60;;;12.55;;
78916;SDS011;68315;48.608;11.436;2024-03-02T13:55:33;19.83;;;13.20;;
78916;SDS011;68315;48.608;11.436;2024-03-02T13:57:59;19.07;;;12.90;;
78916;SDS011;68315;48.608;11.436;2024-03-02T14:00:24;17.38;;;13.50;;
78916;SDS011;68315;48.608;11.436;2024-03-02T14:02:50;18.38;;;13.85;;
78916;SDS011;68315;48.608;11.436;2024-03-02T14:05:15;18.65;;;14.07;;